Flight Track Log - Related Links

Times and Time Zones

All times are in EDT time to prevent confusion due to time zone crossing. See the VH-TVL flight status page for this flight to view local times or setup timezone preferences in your user account.


Time Position Orientation Groundspeed Altitude Reporting Facility
EDT Latitude Longitude Course Direction KTS MPH feet Rate Location/Type
Mon 08:40:32 PM -32.0795 115.8846 241° Southwest 64 74 1,000  Level Aus ATC (RADAR)
Mon 08:40:57 PM -32.0858 115.8708 241° Southwest 101 116 800 -600 Descending Aus ATC (RADAR)
Mon 08:41:32 PM -32.0940 115.8630 219° Southwest 70 81 400 -405 Descending Aus ATC (RADAR)
Mon 08:42:11 PM -32.1015 115.8701 142° Southeast 56 64 300 -162 Descending Aus ATC (RADAR)
Mon 08:42:46 PM -32.0977 115.8760 52° Northeast 39 45 200 -148 Descending Aus ATC (RADAR)
Mon 08:43:32 PM -32.0967 115.8780 61° Northeast 9 10 100 -60 Descending Aus ATC (RADAR)
Mon 08:44:26 PM -32.0969 115.8784 114° Southeast 1 1 100  Level Aus ATC (RADAR)
Mon 08:45:31 PM -32.0980 115.8796 138° Southeast 2 2 100  Level Aus ATC (RADAR)
Mon 08:45:46 PM -32.0975 115.8828 79° East 27 31 100 600 Level Aus ATC (RADAR)
Mon 08:46:21 PM -32.0915 115.8922 53° Northeast 58 67 600 565 Climbing Aus ATC (RADAR)
Mon 08:47:11 PM -32.0968 115.9090 111° Southeast 71 82 900 282 Climbing Aus ATC (RADAR)
Mon 08:47:46 PM -32.1057 115.9223 128° Southeast 85 98 1,000 150 Climbing Aus ATC (RADAR)
Mon 08:48:31 PM -32.1156 115.9414 122° Southeast 89 102 1,100  Climbing Aus ATC (RADAR)
Mon 08:48:56 PM -32.1212 115.9527 120° Southeast 91 105 1,000  Descending Aus ATC (RADAR)
Mon 08:49:31 PM -32.1282 115.9676 119° Southeast 88 101 1,100 218 Climbing Aus ATC (RADAR)
Mon 08:50:46 PM -32.1406 115.9989 115° Southeast 85 98 1,400 303 Climbing Aus ATC (RADAR)
Mon 08:51:10 PM -32.1446 116.0084 116° Southeast 78 90 1,600 407 Climbing Aus ATC (RADAR)
Mon 08:51:45 PM -32.1473 116.0215 104° East 67 77 1,800 353 Climbing Aus ATC (RADAR)
Mon 08:52:35 PM -32.1450 116.0398 82° East 62 71 2,100 353 Climbing Aus ATC (RADAR)
Mon 08:53:10 PM -32.1431 116.0518 79° East 62 71 2,300 225 Climbing Aus ATC (RADAR)
Mon 08:53:55 PM -32.1443 116.0705 94° East 75 86 2,400 86 Climbing Aus ATC (RADAR)
Mon 08:54:20 PM -32.1460 116.0818 100° East 82 94 2,400 -60 Level Aus ATC (RADAR)
Mon 08:55:35 PM -32.1506 116.1174 99° East 87 100 2,300 114 Descending Aus ATC (RADAR)
Mon 08:56:05 PM -32.1461 116.1284 64° Northeast 76 87 2,600 92 Climbing Aus ATC (RADAR)
Mon 08:56:40 PM -32.1317 116.1311 North 88 101 2,400 -75 Descending Aus ATC (RADAR)
Mon 08:57:25 PM -32.1153 116.1376 19° North 82 94 2,500 75 Climbing Aus ATC (RADAR)
Mon 08:58:00 PM -32.1027 116.1439 23° Northeast 83 96 2,500 75 Level Aus ATC (RADAR)
Mon 08:58:45 PM -32.0868 116.1521 23° Northeast 85 98 2,600  Climbing Aus ATC (RADAR)
Mon 08:59:10 PM -32.0780 116.1574 27° Northeast 86 99 2,500 -100 Descending Aus ATC (RADAR)
Mon 08:59:45 PM -32.0659 116.1652 29° Northeast 86 99 2,500 57 Level Aus ATC (RADAR)
Mon 09:00:55 PM -32.0427 116.1800 28° Northeast 80 92 2,600 -63 Climbing Aus ATC (RADAR)
Mon 09:01:20 PM -32.0348 116.1870 37° Northeast 82 94 2,400  Descending Aus ATC (RADAR)
Mon 09:01:55 PM -32.0251 116.1973 42° Northeast 78 90 2,600 75 Climbing Aus ATC (RADAR)
Mon 09:02:40 PM -32.0130 116.2129 48° Northeast 83 96 2,500 -71 Descending Aus ATC (RADAR)
Mon 09:03:19 PM -32.0013 116.2251 42° Northeast 85 98 2,500  Level Aus ATC (RADAR)
Mon 09:04:04 PM -31.9868 116.2357 32° Northeast 84 97 2,500  Level Aus ATC (RADAR)
Mon 09:04:29 PM -31.9784 116.2415 30° Northeast 83 96 2,500  Level Aus ATC (RADAR)
Mon 09:05:44 PM -31.9521 116.2561 25° Northeast 82 94 2,500  Level Aus ATC (RADAR)
Mon 09:06:09 PM -31.9433 116.2609 25° Northeast 83 96 2,500 -120 Level Aus ATC (RADAR)
Mon 09:06:34 PM -31.9340 116.2661 26° Northeast 87 100 2,400 -100 Descending Aus ATC (RADAR)
Mon 09:07:09 PM -31.9238 116.2763 40° Northeast 82 94 2,400  Level Aus ATC (RADAR)
Mon 09:07:54 PM -31.9134 116.2913 51° Northeast 76 87 2,400 75 Level Aus ATC (RADAR)
Mon 09:08:29 PM -31.9063 116.3038 56° Northeast 76 87 2,500 75 Climbing Aus ATC (RADAR)
Mon 09:09:14 PM -31.8956 116.3185 50° Northeast 77 89 2,500  Level Aus ATC (RADAR)
Mon 09:09:44 PM -31.8879 116.3290 49° Northeast 83 96 2,500  Level Aus ATC (RADAR)
Mon 09:10:54 PM -31.8693 116.3518 46° Northeast 82 94 2,500 60 Level Aus ATC (RADAR)
Mon 09:11:24 PM -31.8611 116.3591 37° Northeast 72 83 2,600 188 Climbing Aus ATC (RADAR)
Mon 09:11:58 PM -31.8504 116.3668 31° Northeast 75 86 2,700 162 Climbing Aus ATC (RADAR)
Mon 09:12:38 PM -31.8369 116.3744 25° Northeast 80 92 2,800  Climbing Aus ATC (RADAR)
Mon 09:13:18 PM -31.8218 116.3803 19° North 86 99 2,700 -74 Descending Aus ATC (RADAR)
Mon 09:13:59 PM -31.8074 116.3883 25° Northeast 86 99 2,700 -92 Level Aus ATC (RADAR)
Mon 09:14:23 PM -31.7983 116.3923 20° North 85 98 2,600 -102 Descending Aus ATC (RADAR)
Mon 09:14:58 PM -31.7858 116.3990 25° Northeast 84 97 2,600 -46 Level Aus ATC (RADAR)
Mon 09:16:33 PM -31.7517 116.4131 19° North 84 97 2,500 -104 Descending Aus ATC (RADAR)
Mon 09:16:53 PM -31.7446 116.4163 21° North 83 96 2,400 -109 Descending Aus ATC (RADAR)
Mon 09:17:28 PM -31.7334 116.4225 25° Northeast 77 89 2,400  Level Aus ATC (RADAR)
Mon 09:18:18 PM -31.7167 116.4315 24° Northeast 80 92 2,400 71 Level Aus ATC (RADAR)
Mon 09:18:53 PM -31.7041 116.4365 19° North 81 93 2,500 141 Climbing Aus ATC (RADAR)
Mon 09:19:43 PM -31.6865 116.4442 20° North 80 92 2,600 80 Climbing Aus ATC (RADAR)
Mon 09:20:08 PM -31.6779 116.4499 29° Northeast 84 97 2,600 -218 Level Aus ATC (RADAR)
Mon 09:21:33 PM -31.6482 116.4720 32° Northeast 87 100 2,200 -240 Descending Aus ATC (RADAR)
Mon 09:21:48 PM -31.6424 116.4740 16° North 86 99 2,200 -120 Level Aus ATC (RADAR)
Mon 09:22:23 PM -31.6294 116.4774 13° North 81 93 2,100 71 Descending Aus ATC (RADAR)
Mon 09:23:13 PM -31.6133 116.4839 19° North 74 85 2,300 212 Climbing Aus ATC (RADAR)
Mon 09:23:48 PM -31.6004 116.4784 340° North 85 98 2,400 76 Climbing Aus ATC (RADAR)
Mon 09:24:32 PM -31.5823 116.4681 334° Northwest 95 109 2,400 -87 Level Aus ATC (RADAR)
Mon 09:24:57 PM -31.5716 116.4647 345° North 94 108 2,300 -55 Descending Aus ATC (RADAR)
Mon 09:26:22 PM -31.5735 116.4981 94° East 86 99 2,300  Level Aus ATC (RADAR)
Mon 09:26:47 PM -31.5780 116.5096 115° Southeast 90 104 2,300 200 Level Aus ATC (RADAR)
Mon 09:27:22 PM -31.5850 116.5231 121° Southeast 80 92 2,500 141 Climbing Aus ATC (RADAR)
Mon 09:28:12 PM -31.5951 116.5471 116° Southeast 93 107 2,500  Level Aus ATC (RADAR)
Mon 09:28:47 PM -31.6010 116.5646 112° Southeast 96 110 2,500  Level Aus ATC (RADAR)
Mon 09:29:32 PM -31.6083 116.5869 111° Southeast 96 110 2,500 -86 Level Aus ATC (RADAR)
Mon 09:29:57 PM -31.6122 116.5997 110° East 98 113 2,400 -225 Descending Aus ATC (RADAR)
Mon 09:30:52 PM -31.6210 116.6261 111° Southeast 93 107 2,200 -150 Descending Aus ATC (RADAR)
Mon 09:31:17 PM -31.6259 116.6380 116° Southeast 93 107 2,200 120 Level Aus ATC (RADAR)
Mon 09:31:42 PM -31.6294 116.6490 110° East 85 98 2,300  Climbing Aus ATC (RADAR)
Mon 09:32:17 PM -31.6312 116.6645 98° East 81 93 2,200 -400 Descending Aus ATC (RADAR)
Mon 09:32:57 PM -31.6283 116.6823 79° East 85 98 1,800 29 Descending Aus ATC (RADAR)
Mon 09:36:01 PM -31.7269 116.6357 North 2,500 96 Climbing Aus ATC (Calculated)
Mon 09:37:13 PM -31.7269 116.6357 North 2,500 -32 Level Aus ATC (Calculated)
Mon 09:39:00 PM -31.7682 116.6161 202° Southwest  Level FlightAware Approximate
Mon 09:39:11 PM -31.6514 116.6376 202° Southwest 125 144 2,400  Level Aus ATC (RADAR)
Mon 09:39:46 PM -31.6702 116.6289 202° Southwest 125 144 2,500 160 Climbing Aus ATC (RADAR)
Mon 09:40:26 PM -31.6913 116.6169 206° Southwest 128 147 2,600 126 Climbing Aus ATC (RADAR)
Mon 09:41:21 PM -31.7199 116.6033 202° Southwest 123 142 2,700 63 Climbing Aus ATC (RADAR)
Mon 09:42:01 PM -31.7413 116.5939 200° South 124 143 2,700 80 Level Aus ATC (RADAR)
Mon 09:42:36 PM -31.7596 116.5854 202° Southwest 121 139 2,800 143 Climbing Aus ATC (RADAR)
Mon 09:43:25 PM -31.7867 116.5723 202° Southwest 128 147 2,900 81 Climbing Aus ATC (RADAR)
Mon 09:43:50 PM -31.8008 116.5651 204° Southwest 131 151 2,900 -100 Level Aus ATC (RADAR)
Mon 09:44:25 PM -31.8203 116.5567 200° South 129 148 2,800  Descending Aus ATC (RADAR)
Mon 09:45:10 PM -31.8450 116.5479 197° South 122 140 2,900 150 Climbing Aus ATC (RADAR)
Mon 09:45:45 PM -31.8639 116.5403 199° South 125 144 3,000 57 Climbing Aus ATC (RADAR)
Mon 09:46:55 PM -31.9024 116.5247 199° South 124 143 3,000  Level Aus ATC (RADAR)
Mon 09:47:20 PM -31.9159 116.5185 201° Southwest 124 143 3,000  Level Aus ATC (RADAR)
Mon 09:47:55 PM -31.9356 116.5094 201° Southwest 129 148 3,000  Level Aus ATC (RADAR)
Mon 09:48:40 PM -31.9604 116.4982 201° Southwest 130 150 3,000  Level Aus ATC (RADAR)
Mon 09:49:15 PM -31.9791 116.4887 203° Southwest 127 146 3,000  Level Aus ATC (RADAR)
Mon 09:50:05 PM -32.0079 116.4761 200° South 130 150 3,000  Level Aus ATC (RADAR)
Mon 09:50:25 PM -32.0197 116.4704 202° Southwest 134 154 3,000  Level Aus ATC (RADAR)
Mon 09:51:00 PM -32.0398 116.4617 200° South 131 151 3,000 57 Level Aus ATC (RADAR)
Mon 09:52:10 PM -32.0794 116.4429 202° Southwest 128 147 3,100 64 Climbing Aus ATC (RADAR)
Mon 09:52:34 PM -32.0932 116.4370 200° South 128 147 3,100 -203 Level Aus ATC (RADAR)
Mon 09:53:09 PM -32.1140 116.4282 200° South 134 154 2,900 -141 Descending Aus ATC (RADAR)
Mon 09:53:59 PM -32.1425 116.4154 201° Southwest 131 151 2,900 71 Level Aus ATC (RADAR)
Mon 09:54:34 PM -32.1621 116.4069 200° South 129 148 3,000 150 Climbing Aus ATC (RADAR)
Mon 09:55:19 PM -32.1873 116.3970 198° South 129 148 3,100 86 Climbing Aus ATC (RADAR)
Mon 09:55:44 PM -32.2013 116.3920 197° South 128 147 3,100 -67 Level Aus ATC (RADAR)
Mon 09:56:49 PM -32.2380 116.3764 200° South 131 151 3,000 -63 Descending Aus ATC (RADAR)
Mon 09:57:19 PM -32.2552 116.3703 197° South 127 146 3,000  Level Aus ATC (RADAR)
Mon 09:57:34 PM -32.2635 116.3668 199° South 126 145 3,000  Level Aus ATC (RADAR)
Mon 09:58:09 PM -32.2837 116.3597 197° South 129 148 3,000 71 Level Aus ATC (RADAR)
Mon 09:58:59 PM -32.3113 116.3493 198° South 125 144 3,100 71 Climbing Aus ATC (RADAR)
Mon 09:59:34 PM -32.3308 116.3424 197° South 125 144 3,100 -141 Level Aus ATC (RADAR)
Mon 10:00:24 PM -32.3601 116.3328 195° South 130 150 2,900 -162 Descending Aus ATC (RADAR)
Mon 10:00:48 PM -32.3749 116.3278 196° South 130 150 2,900 128 Level Aus ATC (RADAR)
Mon 10:01:58 PM -32.4129 116.3121 199° South 120 138 3,100 60 Climbing Aus ATC (RADAR)
Mon 10:02:28 PM -32.4192 116.2928 249° West 120 138 3,000 -109 Descending Aus ATC (RADAR)
Mon 10:02:53 PM -32.4221 116.2760 258° West 122 140 3,000  Level Aus ATC (RADAR)
Mon 10:03:28 PM -32.4265 116.2534 257° West 119 137 3,000 -75 Level Aus ATC (RADAR)
Mon 10:04:13 PM -32.4320 116.2243 257° West 120 138 2,900  Descending Aus ATC (RADAR)
Mon 10:04:48 PM -32.4356 116.2015 259° West 118 136 3,000 75 Climbing Aus ATC (RADAR)
Mon 10:05:33 PM -32.4405 116.1717 259° West 120 138 3,000 -86 Level Aus ATC (RADAR)
Mon 10:05:58 PM -32.4435 116.1554 258° West 120 138 2,900 -60 Descending Aus ATC (RADAR)
Mon 10:07:13 PM -32.4506 116.1075 260° West 116 133 2,900  Level Aus ATC (RADAR)
Mon 10:07:43 PM -32.4545 116.0898 255° West 110 127 2,900  Level Aus ATC (RADAR)
Mon 10:08:18 PM -32.4593 116.0680 255° West 113 130 2,900  Level Aus ATC (RADAR)
Mon 10:08:53 PM -32.4632 116.0483 257° West 103 119 2,900 -171 Level Aus ATC (RADAR)
Mon 10:09:28 PM -32.4666 116.0252 260° West 117 135 2,700 -450 Descending Aus ATC (RADAR)
Mon 10:10:13 PM -32.4713 115.9932 260° West 125 144 2,300 -257 Descending Aus ATC (RADAR)
Mon 10:10:38 PM -32.4738 115.9767 260° West 119 137 2,400 100 Climbing Aus ATC (RADAR)
Mon 10:11:13 PM -32.4780 115.9534 258° West 121 139 2,400 -52 Level Aus ATC (RADAR)
Mon 10:12:33 PM -32.4938 115.9005 250° West 121 139 2,300 -58 Descending Aus ATC (RADAR)
Mon 10:12:57 PM -32.4978 115.8835 254° West 124 143 2,300  Level Aus ATC (RADAR)
Mon 10:13:37 PM -32.5045 115.8588 252° West 114 131 2,300 -71 Level Aus ATC (RADAR)
Mon 10:14:22 PM -32.4975 115.8346 289° West 109 125 2,200  Descending Aus ATC (RADAR)
Mon 10:14:57 PM -32.4829 115.8317 351° North 93 107 2,300 185 Climbing Aus ATC (RADAR)
Mon 10:15:27 PM -32.4715 115.8295 351° North 85 98 2,400 185 Climbing Aus ATC (RADAR)
Mon 10:16:02 PM -32.4588 115.8270 350° North 79 91 2,500 -57 Climbing Aus ATC (RADAR)
Mon 10:17:12 PM -32.4305 115.8205 349° North 88 101 2,300 -57 Descending Aus ATC (RADAR)
Mon 10:17:47 PM -32.4172 115.8202 359° North 83 96 2,400 171 Climbing Aus ATC (RADAR)
Mon 10:18:22 PM -32.4038 115.8164 347° North 85 98 2,500 150 Climbing Aus ATC (RADAR)
Mon 10:19:07 PM -32.3860 115.8129 351° North 87 100 2,600 -80 Climbing Aus ATC (RADAR)
Mon 10:19:37 PM -32.3736 115.8118 356° North 89 102 2,400 -185 Descending Aus ATC (RADAR)
Mon 10:20:12 PM -32.3589 115.8088 350° North 89 102 2,400  Level Aus ATC (RADAR)
Mon 10:20:57 PM -32.3401 115.8051 351° North 93 107 2,400  Level Aus ATC (RADAR)
Mon 10:21:32 PM -32.3266 115.8013 346° North 85 98 2,400 -63 Level Aus ATC (RADAR)
Mon 10:22:32 PM -32.3014 115.7981 354° North 87 100 2,300 -214 Descending Aus ATC (RADAR)
Mon 10:22:56 PM -32.2908 115.7959 350° North 90 104 2,100 -469 Descending Aus ATC (RADAR)
Mon 10:23:36 PM -32.2736 115.7927 351° North 94 108 1,800 -450 Descending Aus ATC (RADAR)
Mon 10:24:16 PM -32.2549 115.7899 353° North 100 115 1,500 -300 Descending Aus ATC (RADAR)
Mon 10:24:56 PM -32.2370 115.7867 351° North 96 110 1,400  Descending Aus ATC (RADAR)
Mon 10:25:41 PM -32.2171 115.7836 353° North 93 107 1,500 86 Climbing Aus ATC (RADAR)
Mon 10:26:06 PM -32.2057 115.7829 357° North 96 110 1,500  Level Aus ATC (RADAR)
Mon 10:26:41 PM -32.1909 115.7800 350° North 93 107 1,500  Level Aus ATC (RADAR)
Mon 10:27:46 PM -32.1642 115.7791 358° North 91 105 1,500  Level Aus ATC (RADAR)
Mon 10:28:16 PM -32.1526 115.7848 23° Northeast 89 102 1,500  Level Aus ATC (RADAR)
Mon 10:28:51 PM -32.1393 115.7930 27° Northeast 92 106 1,500  Level Aus ATC (RADAR)
Mon 10:29:46 PM -32.1168 115.8045 23° Northeast 97 112 1,500 -133 Level Aus ATC (RADAR)
Mon 10:30:21 PM -32.1027 115.8113 22° Northeast 95 109 1,300 -300 Descending Aus ATC (RADAR)
Mon 10:31:06 PM -32.1001 115.8338 82° East 91 105 1,100 -300 Descending Aus ATC (RADAR)
Mon 10:31:41 PM -32.1005 115.8491 92° East 79 91 900 -420 Descending Aus ATC (RADAR)
Mon 10:32:46 PM -32.0991 115.8721 86° East 60 69 400 -442 Descending Aus ATC (RADAR)
Mon 10:33:16 PM -32.0955 115.8799 61° Northeast 58 67 200 -281 Descending Aus ATC (RADAR)
Mon 10:33:50 PM -32.0907 115.8824 23° Northeast 39 45 100 -176 Descending Aus ATC (RADAR)

Login

Don't have an account? Register now (free) for customized features, flight alerts, and more!